Time;durP1;ratioP1;P1;durP2;ratioP2;P2;SDS_P1;SDS_P2;PMS_P1;PMS_P2;Temp;Humidity;BMP_temperature;BMP_pressure;BME280_temperature;BME280_humidity;BME280_pressure;Samples;Min_cycle;Max_cycle;Signal;HPM_P1;HPM_P2
2021/01/11 00:02:13;;;;;;;6.00;4.17;;;5.90;99.90;;;;;;4840420;29;20275;-85
2021/01/11 00:04:40;;;;;;;5.07;4.57;;;5.90;99.90;;;;;;4855074;29;20689;-86
2021/01/11 00:07:09;;;;;;;10.33;4.43;;;5.90;99.90;;;;;;4825617;29;20288;-85
2021/01/11 00:09:35;;;;;;;8.03;4.87;;;5.90;99.90;;;;;;4840901;29;20831;-87
2021/01/11 00:12:01;;;;;;;4.83;3.63;;;5.80;99.90;;;;;;4841595;29;20690;-87
2021/01/11 00:14:26;;;;;;;4.97;4.33;;;5.80;99.90;;;;;;4844842;29;20254;-86
2021/01/11 00:16:52;;;;;;;4.33;3.40;;;5.80;99.90;;;;;;4812743;29;20292;-87
2021/01/11 00:19:18;;;;;;;4.80;3.53;;;5.80;99.90;;;;;;4845953;29;20551;-85
2021/01/11 00:21:48;;;;;;;6.40;4.00;;;5.80;99.90;;;;;;4828797;29;20600;-85
2021/01/11 00:24:13;;;;;;;14.47;7.20;;;5.80;99.90;;;;;;4842708;29;20280;-86
2021/01/11 00:26:39;;;;;;;8.30;6.33;;;5.80;99.90;;;;;;4827675;29;20358;-86
2021/01/11 00:29:05;;;;;;;6.27;4.70;;;5.80;99.90;;;;;;4825813;29;20682;-85
2021/01/11 00:31:31;;;;;;;5.40;4.93;;;5.80;99.90;;;;;;4834552;29;20220;-85
2021/01/11 00:33:56;;;;;;;6.87;5.83;;;5.80;99.90;;;;;;4829676;29;20196;-86
2021/01/11 00:36:22;;;;;;;8.10;5.10;;;5.80;99.90;;;;;;4856970;29;21054;-88
2021/01/11 00:38:48;;;;;;;9.20;6.63;;;5.80;99.90;;;;;;4839719;29;20235;-89
2021/01/11 00:41:21;;;;;;;6.23;4.67;;;5.80;99.90;;;;;;4807769;29;20259;-85
2021/01/11 00:43:48;;;;;;;6.03;5.47;;;5.80;99.90;;;;;;4824655;29;20227;-89
2021/01/11 00:46:28;;;;;;;8.03;5.57;;;5.80;99.90;;;;;;4825795;29;21071;-85
2021/01/11 00:48:54;;;;;;;4.57;2.97;;;5.80;99.90;;;;;;4840434;29;20322;-87
2021/01/11 00:51:20;;;;;;;9.43;6.10;;;5.80;99.90;;;;;;4837842;29;20302;-89
2021/01/11 00:53:47;;;;;;;12.47;5.50;;;5.80;99.90;;;;;;4821935;29;20240;-89
2021/01/11 00:56:13;;;;;;;7.37;5.00;;;5.80;99.90;;;;;;4823500;29;20328;-87
2021/01/11 00:58:40;;;;;;;13.50;6.60;;;5.80;99.90;;;;;;4855760;29;20196;-87
2021/01/11 01:01:06;;;;;;;9.90;7.50;;;5.80;99.90;;;;;;4825798;29;20204;-87
2021/01/11 01:03:34;;;;;;;6.93;6.10;;;5.90;99.90;;;;;;4828335;29;20307;-87
2021/01/11 01:06:00;;;;;;;4.20;3.73;;;5.80;99.90;;;;;;4826722;29;20232;-85
2021/01/11 01:08:25;;;;;;;10.23;5.73;;;5.80;99.90;;;;;;4843985;29;20243;-86
2021/01/11 01:10:51;;;;;;;7.57;6.27;;;5.80;99.90;;;;;;4828247;29;20250;-85
2021/01/11 01:13:17;;;;;;;8.00;6.13;;;5.80;99.90;;;;;;4826201;29;20207;-86
2021/01/11 01:15:42;;;;;;;9.30;5.63;;;5.90;99.90;;;;;;4827588;29;20233;-86
2021/01/11 01:18:08;;;;;;;14.70;7.40;;;5.90;99.90;;;;;;4825793;29;20678;-88
2021/01/11 01:20:34;;;;;;;12.83;7.50;;;5.90;99.90;;;;;;4829056;29;20318;-85
2021/01/11 01:23:00;;;;;;;12.40;8.40;;;5.90;99.90;;;;;;4842867;29;20216;-85
2021/01/11 01:25:26;;;;;;;9.83;8.17;;;5.90;99.90;;;;;;4828510;29;20662;-85
2021/01/11 01:27:52;;;;;;;11.67;7.37;;;5.90;99.90;;;;;;4814384;29;20635;-87
2021/01/11 01:30:18;;;;;;;6.97;5.77;;;5.90;99.90;;;;;;4826433;29;20251;-85
2021/01/11 01:32:44;;;;;;;12.57;7.17;;;5.90;99.90;;;;;;4813625;29;20350;-86
2021/01/11 01:35:10;;;;;;;9.13;7.23;;;5.90;99.90;;;;;;4841190;29;20220;-85
2021/01/11 01:37:37;;;;;;;8.77;6.97;;;5.90;99.90;;;;;;4843485;29;20200;-86
2021/01/11 01:40:04;;;;;;;14.83;7.83;;;5.90;99.90;;;;;;4828335;29;20221;-88
2021/01/11 01:42:30;;;;;;;3.80;2.13;;;5.90;99.90;;;;;;4825844;29;20237;-87
2021/01/11 01:44:56;;;;;;;8.87;6.83;;;5.90;99.90;;;;;;4839906;29;20224;-86
2021/01/11 01:47:22;;;;;;;7.33;6.23;;;5.90;99.90;;;;;;4856715;29;20746;-87
2021/01/11 01:49:49;;;;;;;17.70;6.47;;;5.90;99.90;;;;;;4824558;29;20241;-85
2021/01/11 01:52:16;;;;;;;8.00;5.00;;;5.90;99.90;;;;;;4843941;29;20533;-87
2021/01/11 01:54:42;;;;;;;7.20;4.73;;;5.90;99.90;;;;;;4842434;29;20224;-85
2021/01/11 01:57:08;;;;;;;9.87;6.20;;;5.90;99.90;;;;;;4857074;29;20234;-85
2021/01/11 01:59:34;;;;;;;13.33;7.13;;;5.90;99.90;;;;;;4843081;29;20224;-87
2021/01/11 02:02:00;;;;;;;9.53;6.27;;;5.90;99.90;;;;;;4826542;29;20348;-87
2021/01/11 02:04:27;;;;;;;8.97;5.50;;;5.90;99.90;;;;;;4830440;29;20192;-85
2021/01/11 02:07:13;;;;;;;9.77;6.43;;;5.90;99.90;;;;;;4861461;29;20185;-85
2021/01/11 02:09:51;;;;;;;8.53;6.03;;;5.90;99.90;;;;;;4843415;29;20789;-87
2021/01/11 02:12:20;;;;;;;10.13;6.33;;;5.90;99.90;;;;;;4840999;29;20247;-85
2021/01/11 02:15:02;;;;;;;13.03;6.63;;;5.90;99.90;;;;;;4842172;29;20217;-87
2021/01/11 02:17:48;;;;;;;6.80;5.20;;;5.90;99.90;;;;;;4857503;29;20216;-88
2021/01/11 02:20:20;;;;;;;8.30;7.10;;;6.00;99.90;;;;;;4841833;29;20320;-85
2021/01/11 02:23:11;;;;;;;10.33;4.37;;;6.00;99.90;;;;;;4841062;29;20925;-87
2021/01/11 02:25:44;;;;;;;20.80;5.43;;;6.00;99.90;;;;;;4841135;29;20195;-86
2021/01/11 02:28:51;;;;;;;4.93;4.13;;;6.00;99.90;;;;;;4841749;29;20219;-87
2021/01/11 02:31:17;;;;;;;11.13;4.93;;;6.00;99.90;;;;;;4840592;29;20717;-87
2021/01/11 02:33:45;;;;;;;7.93;5.10;;;5.90;99.90;;;;;;4840553;29;20232;-86
2021/01/11 02:36:12;;;;;;;4.47;4.07;;;6.00;99.90;;;;;;4856992;29;20231;-85
2021/01/11 02:38:39;;;;;;;10.27;3.30;;;6.00;99.90;;;;;;4843317;29;21261;-88
2021/01/11 02:41:05;;;;;;;8.67;6.07;;;5.90;99.90;;;;;;4843018;29;20259;-86
2021/01/11 02:43:30;;;;;;;7.13;5.47;;;5.90;99.90;;;;;;4826171;29;20227;-86
2021/01/11 02:45:56;;;;;;;7.83;4.47;;;5.90;99.90;;;;;;4843466;29;20193;-86
2021/01/11 02:48:28;;;;;;;6.93;4.83;;;5.90;99.90;;;;;;4841074;29;20224;-86
2021/01/11 02:51:19;;;;;;;8.63;4.73;;;5.90;99.90;;;;;;4840548;29;20706;-86
2021/01/11 02:54:13;;;;;;;5.30;3.33;;;5.90;99.90;;;;;;4842395;29;20231;-88
2021/01/11 02:57:03;;;;;;;6.47;4.43;;;5.90;99.90;;;;;;4843547;29;20319;-85
2021/01/11 02:59:47;;;;;;;9.10;5.30;;;6.00;99.90;;;;;;4842385;29;20228;-87
2021/01/11 03:02:16;;;;;;;6.07;4.90;;;6.00;99.90;;;;;;4840189;29;20231;-85
2021/01/11 03:04:42;;;;;;;6.77;4.33;;;6.00;99.90;;;;;;4841743;29;20203;-86
2021/01/11 03:07:09;;;;;;;6.77;3.77;;;6.00;99.90;;;;;;4857781;29;20203;-87
2021/01/11 03:09:41;;;;;;;5.63;3.63;;;6.00;99.90;;;;;;4856282;29;20253;-86
2021/01/11 03:12:08;;;;;;;7.90;4.63;;;6.00;99.90;;;;;;4856048;29;20227;-87
2021/01/11 03:14:35;;;;;;;7.17;5.27;;;6.00;99.90;;;;;;4825130;29;20698;-86
2021/01/11 03:17:01;;;;;;;5.27;3.50;;;5.90;99.90;;;;;;4824297;29;20225;-85
2021/01/11 03:19:26;;;;;;;5.33;4.23;;;6.00;99.90;;;;;;4840447;29;20276;-86
2021/01/11 03:21:53;;;;;;;7.63;4.43;;;5.90;99.90;;;;;;4826944;29;20715;-87
2021/01/11 03:24:20;;;;;;;6.20;3.07;;;5.90;99.90;;;;;;4841699;29;20220;-86
2021/01/11 03:26:46;;;;;;;4.63;3.20;;;5.90;99.90;;;;;;4855821;29;20363;-86
2021/01/11 03:29:13;;;;;;;6.13;2.93;;;5.90;99.90;;;;;;4824824;29;20224;-88
2021/01/11 03:31:39;;;;;;;3.87;3.50;;;5.90;99.90;;;;;;4818664;29;20554;-86
2021/01/11 03:34:06;;;;;;;6.40;3.37;;;5.90;99.90;;;;;;4825330;29;20200;-87
2021/01/11 03:36:32;;;;;;;5.03;3.40;;;5.90;99.90;;;;;;4841252;29;20220;-86
2021/01/11 03:38:57;;;;;;;3.67;3.37;;;5.90;99.90;;;;;;4839974;29;20346;-87
2021/01/11 03:41:23;;;;;;;3.57;1.83;;;5.90;99.90;;;;;;4811200;29;20690;-86
2021/01/11 03:43:49;;;;;;;3.50;3.23;;;5.90;99.90;;;;;;4838912;29;20231;-85
2021/01/11 03:46:17;;;;;;;4.13;3.63;;;6.00;99.90;;;;;;4826400;29;20208;-87
2021/01/11 03:48:44;;;;;;;9.83;3.17;;;6.00;99.90;;;;;;4857232;29;20615;-86
2021/01/11 03:51:10;;;;;;;5.57;4.23;;;6.00;99.90;;;;;;4824926;29;20720;-88
2021/01/11 03:53:37;;;;;;;3.67;2.20;;;6.00;99.90;;;;;;4826891;29;20232;-88
2021/01/11 03:56:07;;;;;;;3.23;2.93;;;6.00;99.90;;;;;;4841173;29;20220;-86
2021/01/11 03:58:33;;;;;;;8.17;3.67;;;6.00;99.90;;;;;;4856342;29;20193;-87
2021/01/11 04:00:59;;;;;;;3.07;2.43;;;6.00;99.90;;;;;;4840577;29;20193;-86
2021/01/11 04:03:26;;;;;;;3.40;2.27;;;6.00;99.90;;;;;;4856766;29;20235;-87
2021/01/11 04:05:52;;;;;;;9.40;3.27;;;6.00;99.90;;;;;;4840322;29;20303;-88
2021/01/11 04:08:18;;;;;;;16.83;4.33;;;6.00;99.90;;;;;;4838885;29;20221;-86
2021/01/11 04:10:44;;;;;;;3.43;2.60;;;6.00;99.90;;;;;;4826101;29;20247;-86
2021/01/11 04:13:10;;;;;;;2.97;2.23;;;6.00;99.90;;;;;;4839921;29;20200;-88
2021/01/11 04:15:36;;;;;;;4.70;3.00;;;6.00;99.90;;;;;;4839468;29;20586;-88
2021/01/11 04:18:02;;;;;;;4.73;2.73;;;6.00;99.90;;;;;;4824468;29;20224;-87
2021/01/11 04:20:28;;;;;;;1.73;1.60;;;6.00;99.90;;;;;;4840129;29;20246;-87
2021/01/11 04:22:55;;;;;;;3.30;3.00;;;6.00;99.90;;;;;;4822703;29;20236;-86
2021/01/11 04:25:23;;;;;;;2.67;2.47;;;5.90;99.90;;;;;;4824510;29;20647;-86
2021/01/11 04:27:49;;;;;;;3.80;1.97;;;5.90;99.90;;;;;;4823568;29;21168;-87
2021/01/11 04:30:15;;;;;;;11.43;3.63;;;5.90;99.90;;;;;;4841196;29;20228;-87
2021/01/11 04:32:41;;;;;;;3.37;2.93;;;5.90;99.90;;;;;;4840292;29;20782;-87
2021/01/11 04:35:11;;;;;;;4.80;2.40;;;6.00;99.90;;;;;;4840803;29;20299;-86
2021/01/11 04:37:37;;;;;;;17.20;4.87;;;6.00;99.90;;;;;;4840734;29;20197;-86
2021/01/11 04:40:08;;;;;;;5.27;2.67;;;5.90;99.90;;;;;;4840800;29;20208;-88
2021/01/11 04:43:02;;;;;;;3.50;3.30;;;6.00;99.90;;;;;;4822472;29;20244;-86
2021/01/11 04:45:27;;;;;;;4.07;3.30;;;5.90;99.90;;;;;;4839417;29;20221;-87
2021/01/11 04:47:55;;;;;;;3.40;3.10;;;6.00;99.90;;;;;;4840957;29;20235;-87
2021/01/11 04:50:23;;;;;;;9.97;3.03;;;6.00;99.90;;;;;;4838491;29;20972;-87
2021/01/11 04:52:49;;;;;;;3.07;2.73;;;6.00;99.90;;;;;;4826722;29;20227;-86
2021/01/11 04:55:15;;;;;;;4.53;3.60;;;6.00;99.90;;;;;;4826344;29;20200;-85
2021/01/11 04:57:56;;;;;;;2.27;2.07;;;6.00;99.90;;;;;;4839846;29;20245;-86
2021/01/11 05:00:30;;;;;;;4.03;2.73;;;6.00;99.90;;;;;;4860262;29;20381;-87
2021/01/11 05:03:00;;;;;;;3.23;2.87;;;6.00;99.90;;;;;;4844749;29;20260;-86
2021/01/11 05:05:28;;;;;;;5.37;2.90;;;6.00;99.90;;;;;;4860400;29;20224;-86
2021/01/11 05:07:54;;;;;;;2.93;2.63;;;6.00;99.90;;;;;;4829259;29;20276;-86
2021/01/11 05:10:22;;;;;;;3.23;2.97;;;6.00;99.90;;;;;;4846886;29;20581;-86
2021/01/11 05:13:02;;;;;;;3.07;2.53;;;6.00;99.90;;;;;;4860554;29;20220;-85
2021/01/11 05:15:33;;;;;;;6.27;2.73;;;6.00;99.90;;;;;;4842078;29;20234;-87
2021/01/11 05:18:00;;;;;;;4.53;2.67;;;6.10;99.90;;;;;;4826141;29;20220;-87
2021/01/11 05:20:31;;;;;;;3.33;2.77;;;6.10;99.90;;;;;;4828606;29;20231;-86
2021/01/11 05:22:58;;;;;;;3.13;2.23;;;6.00;99.90;;;;;;4859137;29;20263;-87
2021/01/11 05:25:26;;;;;;;5.07;2.57;;;6.10;99.90;;;;;;4841170;29;20525;-89
2021/01/11 05:28:18;;;;;;;4.23;2.57;;;6.10;99.90;;;;;;4844372;29;20201;-87
2021/01/11 05:30:45;;;;;;;2.43;2.23;;;6.10;99.90;;;;;;4843139;29;20295;-87
2021/01/11 05:33:17;;;;;;;9.70;3.10;;;6.10;99.90;;;;;;4844273;29;20281;-85
2021/01/11 05:35:43;;;;;;;3.90;2.00;;;6.10;99.90;;;;;;4859617;29;20224;-85
2021/01/11 05:38:18;;;;;;;3.23;2.40;;;6.10;99.90;;;;;;4826894;29;20220;-85
2021/01/11 05:40:46;;;;;;;3.83;3.00;;;6.10;99.90;;;;;;4840718;29;20282;-86
2021/01/11 05:43:22;;;;;;;4.27;2.80;;;6.10;99.90;;;;;;4845108;29;20197;-86
2021/01/11 05:45:50;;;;;;;2.20;1.60;;;6.10;99.90;;;;;;4860313;29;20230;-86
2021/01/11 05:48:17;;;;;;;4.73;2.30;;;6.10;99.90;;;;;;4856998;29;20223;-85
2021/01/11 05:50:45;;;;;;;1.27;1.17;;;6.10;99.90;;;;;;4842714;29;20699;-86
2021/01/11 05:53:18;;;;;;;7.17;2.67;;;6.10;99.90;;;;;;4840637;29;20287;-86
2021/01/11 05:55:45;;;;;;;4.63;2.37;;;6.10;99.90;;;;;;4853359;29;20278;-86
2021/01/11 05:58:11;;;;;;;1.73;1.60;;;6.10;99.90;;;;;;4836304;29;20193;-87
2021/01/11 06:00:38;;;;;;;2.73;2.00;;;6.10;99.90;;;;;;4836214;29;21330;-87
2021/01/11 06:03:06;;;;;;;2.83;2.63;;;6.10;99.90;;;;;;4837582;29;20236;-86
2021/01/11 06:05:32;;;;;;;6.90;2.33;;;6.10;99.90;;;;;;4851775;29;20230;-87
2021/01/11 06:08:03;;;;;;;1.83;1.70;;;6.10;99.90;;;;;;4810126;29;20243;-87
2021/01/11 06:10:30;;;;;;;2.13;1.83;;;6.10;99.90;;;;;;4834994;29;20231;-87
2021/01/11 06:12:55;;;;;;;3.20;1.93;;;6.10;99.90;;;;;;4841051;29;20300;-89
2021/01/11 06:15:26;;;;;;;2.80;2.50;;;6.10;99.90;;;;;;4836065;29;20291;-86
2021/01/11 06:17:53;;;;;;;9.07;2.47;;;6.10;99.90;;;;;;4851687;29;20319;-85
2021/01/11 06:20:24;;;;;;;3.57;3.27;;;6.10;99.90;;;;;;4851749;29;20811;-89
2021/01/11 06:22:50;;;;;;;3.67;3.07;;;6.10;99.90;;;;;;4851248;29;20231;-86
2021/01/11 06:25:24;;;;;;;4.27;2.60;;;6.10;99.90;;;;;;4842942;29;20197;-87
2021/01/11 06:27:57;;;;;;;5.07;3.10;;;6.10;99.90;;;;;;4836345;29;20218;-87
2021/01/11 06:30:36;;;;;;;4.13;2.80;;;6.10;99.90;;;;;;4837287;29;20245;-87
2021/01/11 06:33:06;;;;;;;2.43;2.23;;;6.10;99.90;;;;;;4856655;29;20733;-87
2021/01/11 06:35:42;;;;;;;8.13;2.20;;;6.10;99.90;;;;;;4856641;29;20220;-85
2021/01/11 06:38:20;;;;;;;5.00;4.23;;;6.10;99.90;;;;;;4857062;29;20219;-86
2021/01/11 06:40:50;;;;;;;3.23;2.50;;;6.10;99.90;;;;;;4838334;29;20266;-87
2021/01/11 06:57:24;;;;;;;4.03;2.83;;;6.00;99.90;;;;;;4793437;29;20269;-96
2021/01/11 07:00:16;;;;;;;;;;;;;;;;;;;;;
2021/01/11 07:03:28;;;;;;;25.40;2.47;;;6.00;99.90;;;;;;5074934;23;21069;-94
2021/01/11 07:06:03;;;;;;;2.33;1.70;;;6.00;99.90;;;;;;4793874;29;20232;-96
2021/01/11 07:12:01;;;;;;;2.00;1.80;;;6.00;99.90;;;;;;4859524;23;20246;-96
2021/01/11 07:15:02;;;;;;;2.47;2.10;;;6.00;99.90;;;;;;4773874;29;20310;-96
2021/01/11 07:18:16;;;;;;;3.23;1.70;;;6.00;99.90;;;;;;4777947;29;20233;-96
2021/01/11 07:21:02;;;;;;;2.23;2.03;;;6.10;99.90;;;;;;4822285;29;20225;-96
2021/01/11 07:23:31;;;;;;;2.83;2.63;;;6.00;99.90;;;;;;4824758;29;20219;-96
2021/01/11 07:26:01;;;;;;;3.40;2.70;;;6.10;99.90;;;;;;4832965;29;20252;-95
2021/01/11 07:28:56;;;;;;;2.37;2.17;;;6.10;99.90;;;;;;4832815;29;20221;-94
2021/01/11 07:31:55;;;;;;;2.87;1.57;;;6.10;99.90;;;;;;4859297;29;20251;-96
2021/01/11 07:34:33;;;;;;;2.70;2.50;;;6.10;99.90;;;;;;4888052;23;20236;-92
2021/01/11 07:37:12;;;;;;;3.30;1.73;;;6.10;99.90;;;;;;5013067;23;20394;-96
2021/01/11 07:39:56;;;;;;;2.60;2.40;;;6.10;99.90;;;;;;4896753;24;20236;-96
2021/01/11 07:42:31;;;;;;;3.37;1.80;;;6.00;99.90;;;;;;4848546;29;20242;-92
2021/01/11 07:45:03;;;;;;;2.53;1.47;;;6.10;99.90;;;;;;4858148;29;20227;-92
2021/01/11 07:47:29;;;;;;;2.73;2.53;;;6.10;99.90;;;;;;4872671;29;20428;-91
2021/01/11 07:49:55;;;;;;;2.00;1.87;;;6.10;99.90;;;;;;4848731;29;20219;-93
2021/01/11 07:52:21;;;;;;;2.50;2.17;;;6.10;99.90;;;;;;4859998;29;20196;-91
2021/01/11 07:55:01;;;;;;;7.43;2.70;;;6.10;99.90;;;;;;4851306;29;20236;-94
2021/01/11 07:57:34;;;;;;;2.93;2.73;;;6.10;99.90;;;;;;4859681;29;20224;-96
2021/01/11 08:00:10;;;;;;;23.10;2.67;;;6.10;99.90;;;;;;4857677;29;20232;-96
2021/01/11 08:02:36;;;;;;;2.00;1.83;;;6.10;99.90;;;;;;4857645;29;20235;-94
2021/01/11 08:05:05;;;;;;;4.33;2.50;;;6.10;99.90;;;;;;4851445;29;20223;-94
2021/01/11 08:07:34;;;;;;;10.93;1.83;;;6.10;99.90;;;;;;4864702;29;20196;-94
2021/01/11 08:10:00;;;;;;;11.97;2.33;;;6.10;99.90;;;;;;4842571;29;20248;-96
2021/01/11 08:12:29;;;;;;;2.20;2.00;;;6.10;99.90;;;;;;4857584;29;20224;-96
2021/01/11 08:15:04;;;;;;;6.43;1.30;;;6.10;99.90;;;;;;4859155;29;20754;-96
2021/01/11 08:17:31;;;;;;;8.07;2.40;;;6.10;99.90;;;;;;4848398;29;20268;-96
2021/01/11 08:20:08;;;;;;;7.40;2.40;;;6.10;99.90;;;;;;4856932;29;20229;-96
2021/01/11 08:22:35;;;;;;;3.37;1.30;;;6.10;99.90;;;;;;4856349;29;20827;-96
2021/01/11 08:25:01;;;;;;;3.03;2.80;;;6.10;99.90;;;;;;4859413;29;20201;-95
2021/01/11 08:27:27;;;;;;;11.53;3.13;;;6.10;99.90;;;;;;4856830;29;20247;-96
2021/01/11 08:30:09;;;;;;;;;;;;;;;;;;;;;
2021/01/11 08:32:36;;;;;;;2.00;1.43;;;6.10;99.90;;;;;;4859206;29;20296;-95
2021/01/11 08:35:09;;;;;;;1.40;1.17;;;6.10;99.90;;;;;;4842875;29;20382;-96
2021/01/11 08:37:38;;;;;;;6.83;2.37;;;6.10;99.90;;;;;;4858655;29;20195;-95
2021/01/11 08:40:09;;;;;;;2.93;2.27;;;6.20;99.90;;;;;;4865252;29;20232;-96
2021/01/11 08:42:37;;;;;;;1.77;1.67;;;6.20;99.90;;;;;;4828760;29;21051;-94
2021/01/11 08:45:33;;;;;;;5.20;2.23;;;6.20;99.90;;;;;;4866987;29;20307;-96
2021/01/11 08:47:59;;;;;;;2.30;1.83;;;6.20;99.90;;;;;;4866586;29;20231;-95
2021/01/11 08:50:25;;;;;;;1.20;1.10;;;6.20;99.90;;;;;;4861466;29;20247;-94
2021/01/11 08:52:51;;;;;;;0.80;0.80;;;6.20;99.90;;;;;;4860203;29;20233;-96
2021/01/11 08:55:18;;;;;;;2.63;1.80;;;6.20;99.90;;;;;;4849478;29;20656;-96
2021/01/11 08:57:59;;;;;;;5.20;2.10;;;6.20;99.90;;;;;;4848886;29;20331;-96
2021/01/11 09:00:36;;;;;;;3.47;1.40;;;6.20;99.90;;;;;;4854214;29;20571;-96
2021/01/11 09:03:11;;;;;;;2.10;1.40;;;6.30;99.90;;;;;;4849860;29;20287;-96
2021/01/11 09:05:41;;;;;;;1.67;1.57;;;6.30;99.90;;;;;;4844298;29;21301;-96
2021/01/11 09:08:19;;;;;;;1.70;0.97;;;6.30;99.90;;;;;;4861183;29;20681;-96
2021/01/11 09:10:46;;;;;;;29.53;2.17;;;6.30;99.90;;;;;;4852110;29;20329;-96
2021/01/11 09:13:25;;;;;;;1.13;1.03;;;6.40;99.90;;;;;;4864149;29;20189;-96
2021/01/11 09:15:55;;;;;;;2.40;1.27;;;6.40;99.90;;;;;;4870321;29;20266;-96
2021/01/11 09:18:23;;;;;;;4.13;1.50;;;6.40;99.90;;;;;;4856595;29;20305;-96
2021/01/11 09:20:50;;;;;;;1.03;1.03;;;6.40;99.90;;;;;;4858984;29;20258;-96
2021/01/11 09:23:19;;;;;;;1.83;1.13;;;6.40;99.90;;;;;;4847112;29;20255;-96
2021/01/11 09:26:00;;;;;;;1.37;1.17;;;6.40;99.90;;;;;;4866474;29;20233;-96
2021/01/11 09:28:30;;;;;;;2.37;1.50;;;6.40;99.90;;;;;;4854255;29;20256;-95
2021/01/11 09:30:59;;;;;;;3.10;2.53;;;6.40;99.90;;;;;;4859884;29;20224;-95
2021/01/11 09:33:32;;;;;;;12.70;2.93;;;6.40;99.90;;;;;;4858590;29;20769;-96
2021/01/11 09:36:00;;;;;;;3.37;0.80;;;6.40;99.90;;;;;;4851692;29;20285;-96
2021/01/11 09:38:29;;;;;;;2.47;1.03;;;6.40;99.90;;;;;;4851599;29;20386;-96
2021/01/11 09:40:59;;;;;;;1.37;1.20;;;6.30;99.90;;;;;;4861227;29;20263;-96
2021/01/11 09:43:31;;;;;;;3.50;2.70;;;6.40;99.90;;;;;;4853334;29;20201;-96
2021/01/11 09:46:01;;;;;;;2.30;2.10;;;6.40;99.90;;;;;;4845386;29;20625;-96
2021/01/11 09:48:30;;;;;;;3.13;2.17;;;6.40;99.90;;;;;;4860846;29;20261;-95
2021/01/11 09:50:55;;;;;;;3.43;1.43;;;6.40;99.90;;;;;;4843565;29;20228;-96
2021/01/11 09:53:23;;;;;;;1.93;1.83;;;6.40;99.90;;;;;;4858567;29;20776;-96
2021/01/11 09:55:49;;;;;;;0.93;0.80;;;6.40;99.90;;;;;;4857125;29;20224;-95
2021/01/11 09:58:16;;;;;;;1.80;1.70;;;6.50;99.90;;;;;;4853402;29;20196;-96
2021/01/11 10:00:42;;;;;;;2.30;2.20;;;6.50;99.90;;;;;;4859403;29;20235;-96
2021/01/11 10:03:08;;;;;;;1.90;1.63;;;6.50;99.90;;;;;;4842545;29;20228;-96
2021/01/11 10:05:34;;;;;;;1.73;1.37;;;6.50;99.90;;;;;;4843801;29;20235;-96
2021/01/11 10:08:01;;;;;;;3.03;1.03;;;6.60;99.90;;;;;;4849923;29;20275;-95
2021/01/11 10:10:29;;;;;;;2.20;1.43;;;6.60;99.90;;;;;;4837480;29;20674;-96
2021/01/11 10:12:55;;;;;;;2.43;1.63;;;6.60;99.90;;;;;;4847164;29;20201;-96
2021/01/11 10:17:58;;;;;;;1.63;1.53;;;6.60;99.90;;;;;;4828989;29;20621;-96
2021/01/11 10:20:29;;;;;;;0.93;0.93;;;6.60;99.90;;;;;;4816084;29;20786;-94
2021/01/11 10:22:57;;;;;;;1.57;1.17;;;6.70;99.90;;;;;;4842565;29;20229;-95
2021/01/11 10:25:25;;;;;;;2.53;1.67;;;6.70;99.90;;;;;;4843527;29;20605;-92
2021/01/11 10:27:53;;;;;;;4.77;1.50;;;6.70;99.90;;;;;;4841242;29;20230;-94
2021/01/11 10:30:19;;;;;;;3.33;1.73;;;6.70;99.90;;;;;;4840932;29;20288;-93
2021/01/11 10:32:45;;;;;;;4.00;1.20;;;6.70;99.90;;;;;;4842313;29;20233;-92
2021/01/11 10:35:11;;;;;;;1.57;1.47;;;6.70;99.90;;;;;;4841085;29;20225;-93
2021/01/11 10:37:45;;;;;;;6.80;1.27;;;6.70;99.90;;;;;;4814694;29;20192;-94
2021/01/11 10:40:13;;;;;;;1.47;1.37;;;6.70;99.90;;;;;;4835479;29;20261;-93
2021/01/11 10:42:39;;;;;;;1.07;1.03;;;6.70;99.90;;;;;;4834353;29;20239;-94
2021/01/11 10:45:06;;;;;;;0.80;0.67;;;6.70;99.90;;;;;;4840120;29;20225;-93
2021/01/11 10:47:42;;;;;;;0.93;0.93;;;6.70;99.90;;;;;;4831947;29;20758;-95
2021/01/11 10:50:09;;;;;;;1.73;0.93;;;6.80;99.90;;;;;;4840876;29;20237;-96
2021/01/11 10:52:40;;;;;;;0.60;0.60;;;6.80;99.90;;;;;;4839573;29;20256;-92
2021/01/11 10:55:06;;;;;;;0.43;0.40;;;6.80;99.90;;;;;;4811208;29;20197;-93
2021/01/11 10:57:31;;;;;;;0.63;0.63;;;6.80;99.90;;;;;;4832161;29;20217;-92
2021/01/11 10:59:57;;;;;;;1.30;1.27;;;6.80;99.90;;;;;;4817262;29;20229;-95
2021/01/11 11:02:25;;;;;;;0.77;0.77;;;6.90;99.90;;;;;;4831464;29;21133;-95
2021/01/11 11:04:53;;;;;;;1.80;1.20;;;6.90;99.90;;;;;;4831646;29;20289;-95
2021/01/11 11:07:19;;;;;;;0.70;0.70;;;6.90;99.90;;;;;;4841102;29;20202;-94
2021/01/11 11:09:45;;;;;;;2.37;1.40;;;6.90;99.90;;;;;;4833514;29;20642;-94
2021/01/11 11:12:11;;;;;;;3.33;0.50;;;6.90;99.90;;;;;;4843018;29;20251;-92
2021/01/11 11:14:37;;;;;;;1.30;0.90;;;6.90;99.90;;;;;;4841800;29;21185;-92
2021/01/11 11:17:03;;;;;;;0.50;0.50;;;6.90;99.90;;;;;;4840300;29;21268;-94
2021/01/11 11:19:29;;;;;;;2.00;1.00;;;6.90;99.90;;;;;;4840457;29;20522;-93
2021/01/11 11:21:54;;;;;;;1.50;0.70;;;6.90;99.90;;;;;;4832998;29;20306;-94
2021/01/11 11:24:20;;;;;;;2.07;1.63;;;6.80;99.90;;;;;;4838732;29;20233;-95
2021/01/11 11:26:46;;;;;;;2.83;0.87;;;6.80;99.90;;;;;;4830103;29;20252;-93
2021/01/11 11:29:12;;;;;;;0.77;0.60;;;6.80;99.90;;;;;;4841691;29;21293;-94
2021/01/11 11:31:39;;;;;;;0.60;0.60;;;6.80;99.90;;;;;;4830871;29;21368;-94
2021/01/11 11:34:05;;;;;;;0.77;0.67;;;6.80;99.90;;;;;;4842435;29;20201;-95
2021/01/11 11:36:31;;;;;;;5.50;0.90;;;6.70;99.90;;;;;;4831149;29;20231;-94
2021/01/11 11:38:58;;;;;;;5.20;0.60;;;6.80;99.90;;;;;;4830134;29;20236;-93
2021/01/11 11:41:24;;;;;;;2.63;1.13;;;6.70;99.90;;;;;;4831005;29;20225;-93
2021/01/11 11:43:50;;;;;;;0.63;0.40;;;6.70;99.90;;;;;;4831118;29;21081;-92
2021/01/11 11:46:15;;;;;;;1.13;0.90;;;6.70;99.90;;;;;;4840690;29;20268;-95
2021/01/11 11:48:41;;;;;;;3.80;0.70;;;6.70;99.90;;;;;;4838375;29;20230;-94
2021/01/11 11:51:07;;;;;;;2.17;1.30;;;6.80;99.90;;;;;;4836799;29;20240;-93
2021/01/11 11:53:32;;;;;;;0.60;0.60;;;6.70;99.90;;;;;;4831066;29;20674;-93
2021/01/11 11:55:58;;;;;;;0.83;0.83;;;6.70;99.90;;;;;;4831261;29;20231;-94
2021/01/11 11:58:24;;;;;;;1.80;0.90;;;6.80;99.90;;;;;;4831440;29;20197;-89
2021/01/11 12:00:50;;;;;;;0.40;0.40;;;6.80;99.90;;;;;;4838868;29;20604;-95
2021/01/11 12:03:15;;;;;;;1.17;1.00;;;6.80;99.90;;;;;;4831412;29;20229;-95
2021/01/11 12:05:41;;;;;;;1.60;1.13;;;6.80;99.90;;;;;;4837979;29;20221;-93
2021/01/11 12:08:07;;;;;;;3.90;0.70;;;6.70;99.90;;;;;;4832698;29;20258;-95
2021/01/11 12:10:33;;;;;;;0.60;0.60;;;6.70;99.90;;;;;;4833999;29;20585;-90
2021/01/11 12:12:59;;;;;;;0.30;0.30;;;6.70;99.90;;;;;;4835135;29;21047;-93
2021/01/11 12:15:30;;;;;;;0.87;0.80;;;6.80;99.90;;;;;;4834294;29;20225;-94
2021/01/11 12:17:56;;;;;;;3.17;0.77;;;6.70;99.90;;;;;;4828239;29;20247;-95
2021/01/11 12:20:22;;;;;;;1.53;1.17;;;6.70;99.90;;;;;;4826775;29;20220;-96
2021/01/11 12:22:48;;;;;;;0.50;0.50;;;6.70;99.90;;;;;;4841321;29;20766;-94
2021/01/11 12:25:14;;;;;;;0.53;0.53;;;6.70;99.90;;;;;;4845386;29;20228;-96
2021/01/11 12:27:40;;;;;;;2.03;1.83;;;6.70;99.90;;;;;;4843655;29;20252;-96
2021/01/11 12:30:06;;;;;;;0.70;0.63;;;6.70;99.90;;;;;;4835186;29;20329;-93
2021/01/11 12:32:32;;;;;;;1.13;1.07;;;6.70;99.90;;;;;;4841669;29;21132;-96
2021/01/11 12:34:58;;;;;;;2.10;0.63;;;6.70;99.90;;;;;;4833928;29;20225;-93
2021/01/11 12:37:24;;;;;;;1.00;1.00;;;6.70;99.90;;;;;;4844657;29;20197;-96
2021/01/11 12:39:50;;;;;;;0.90;0.77;;;6.70;99.90;;;;;;4834603;29;20228;-94
2021/01/11 12:42:16;;;;;;;0.60;0.60;;;6.80;99.90;;;;;;4842219;29;20221;-94
2021/01/11 12:44:45;;;;;;;1.43;1.03;;;6.80;99.90;;;;;;4843361;29;20304;-96
2021/01/11 12:47:12;;;;;;;6.60;0.90;;;6.80;99.90;;;;;;4843374;29;20268;-94
2021/01/11 12:49:39;;;;;;;1.20;0.70;;;6.80;99.90;;;;;;4822176;29;20201;-95
2021/01/11 12:52:12;;;;;;;7.97;1.13;;;6.80;99.90;;;;;;4842633;29;20217;-96
2021/01/11 12:54:38;;;;;;;2.87;1.10;;;6.80;99.90;;;;;;4842993;29;20230;-95
2021/01/11 12:57:05;;;;;;;1.60;1.50;;;6.80;99.90;;;;;;4834303;29;20284;-94
2021/01/11 12:59:32;;;;;;;5.63;0.80;;;6.80;99.90;;;;;;4844299;29;20615;-92
2021/01/11 13:01:59;;;;;;;0.43;0.43;;;6.80;99.90;;;;;;4826972;29;20435;-93
2021/01/11 13:04:27;;;;;;;0.50;0.50;;;6.90;99.90;;;;;;4842969;29;20650;-96
2021/01/11 13:06:58;;;;;;;1.90;1.63;;;6.90;99.90;;;;;;4845421;29;20202;-92
2021/01/11 13:09:25;;;;;;;1.30;1.20;;;6.90;99.90;;;;;;4843954;29;20227;-93
2021/01/11 13:11:53;;;;;;;4.57;1.27;;;7.00;99.90;;;;;;4827758;29;20347;-92
2021/01/11 13:14:21;;;;;;;0.70;0.70;;;6.90;99.90;;;;;;4842882;29;20259;-94
2021/01/11 13:16:51;;;;;;;1.33;0.80;;;6.90;99.90;;;;;;4834177;29;20348;-92
2021/01/11 13:19:17;;;;;;;4.77;1.43;;;6.90;99.90;;;;;;4843971;29;20197;-93
2021/01/11 13:21:45;;;;;;;0.70;0.60;;;6.90;99.90;;;;;;4844046;29;20683;-95
2021/01/11 13:24:11;;;;;;;5.43;1.17;;;6.90;99.90;;;;;;4845682;29;20224;-92
2021/01/11 13:26:40;;;;;;;4.53;0.83;;;6.90;99.90;;;;;;4840954;29;20297;-92
2021/01/11 13:29:07;;;;;;;1.17;1.03;;;6.90;99.90;;;;;;4842941;29;20743;-93
2021/01/11 13:31:34;;;;;;;0.73;0.43;;;6.90;99.90;;;;;;4839605;29;20731;-94